Time;durP1;ratioP1;P1;durP2;ratioP2;P2;SDS_P1;SDS_P2;PMS_P1;PMS_P2;Temp;Humidity;BMP_temperature;BMP_pressure;BME280_temperature;BME280_humidity;BME280_pressure;Samples;Min_cycle;Max_cycle;Signal;HPM_P1;HPM_P2
2022/07/04 00:00:20;;;;;;;3.40;1.33;;;17.70;65.00;;;;;;5036662;28;20388;-69
2022/07/04 00:02:47;;;;;;;1.98;1.20;;;17.70;65.00;;;;;;5038761;28;20406;-69
2022/07/04 00:05:13;;;;;;;3.40;1.23;;;17.70;64.90;;;;;;5049617;28;20054;-69
2022/07/04 00:07:40;;;;;;;1.33;1.20;;;17.70;65.00;;;;;;5043192;28;20112;-69
2022/07/04 00:10:08;;;;;;;1.25;0.98;;;17.70;65.00;;;;;;5041616;28;20029;-69
2022/07/04 00:12:34;;;;;;;2.90;1.17;;;17.60;65.10;;;;;;5044684;28;20040;-70
2022/07/04 00:15:01;;;;;;;2.13;1.20;;;17.60;65.20;;;;;;5046963;28;20094;-70
2022/07/04 00:17:27;;;;;;;3.17;1.30;;;17.50;65.30;;;;;;5046304;28;20013;-71
2022/07/04 00:19:52;;;;;;;2.40;1.20;;;17.50;65.30;;;;;;5041594;28;20420;-71
2022/07/04 00:22:18;;;;;;;1.63;1.00;;;17.50;65.10;;;;;;5047995;28;20033;-71
2022/07/04 00:24:43;;;;;;;2.47;1.10;;;17.50;65.10;;;;;;5042530;28;20051;-71
2022/07/04 00:27:09;;;;;;;2.75;1.40;;;17.50;65.10;;;;;;5049452;28;20025;-71
2022/07/04 00:29:34;;;;;;;2.15;1.20;;;17.40;65.10;;;;;;5034179;28;20029;-71
2022/07/04 00:32:00;;;;;;;2.50;1.17;;;17.40;65.30;;;;;;5030996;28;20029;-71
2022/07/04 00:34:26;;;;;;;1.70;1.20;;;17.40;65.30;;;;;;5045251;28;20452;-71
2022/07/04 00:36:52;;;;;;;3.80;1.30;;;17.40;65.40;;;;;;5051422;28;20528;-70
2022/07/04 00:39:17;;;;;;;2.60;1.20;;;17.40;65.40;;;;;;5036934;28;20379;-72
2022/07/04 00:41:43;;;;;;;3.20;1.50;;;17.30;65.40;;;;;;5029448;28;20032;-71
2022/07/04 00:44:11;;;;;;;3.30;1.30;;;17.30;65.50;;;;;;5039551;28;20029;-70
2022/07/04 00:46:36;;;;;;;2.40;1.30;;;17.30;65.40;;;;;;5030399;28;20039;-69
2022/07/04 00:49:06;;;;;;;2.40;1.10;;;17.30;65.40;;;;;;5041266;28;20504;-70
2022/07/04 00:51:33;;;;;;;3.05;1.30;;;17.30;65.40;;;;;;5030528;28;20072;-70
2022/07/04 00:53:59;;;;;;;1.80;0.95;;;17.20;66.10;;;;;;5032150;28;20021;-70
2022/07/04 00:56:25;;;;;;;2.47;1.27;;;17.20;65.50;;;;;;5036159;28;20025;-70
2022/07/04 00:58:52;;;;;;;1.90;1.00;;;17.20;65.80;;;;;;5044094;28;20024;-70
2022/07/04 01:01:19;;;;;;;2.42;1.10;;;17.20;65.80;;;;;;5042888;28;20059;-69
2022/07/04 01:03:45;;;;;;;2.75;1.20;;;17.20;65.70;;;;;;5040667;28;20033;-70
2022/07/04 01:06:13;;;;;;;2.28;1.10;;;17.20;65.60;;;;;;5046456;28;20035;-69
2022/07/04 01:08:41;;;;;;;3.20;1.08;;;17.20;65.70;;;;;;5041605;28;20033;-70
2022/07/04 01:11:08;;;;;;;3.53;1.23;;;17.10;65.60;;;;;;5047075;28;20021;-69
2022/07/04 01:13:34;;;;;;;1.15;0.98;;;17.10;65.90;;;;;;5042838;28;20034;-69
2022/07/04 01:16:00;;;;;;;2.15;1.20;;;17.00;66.00;;;;;;5045391;28;20056;-68
2022/07/04 01:18:25;;;;;;;1.95;1.08;;;17.00;66.00;;;;;;5044780;28;20061;-70
2022/07/04 01:20:51;;;;;;;1.88;1.00;;;16.90;65.90;;;;;;5033804;28;20822;-70
2022/07/04 01:23:17;;;;;;;2.15;1.10;;;17.00;66.00;;;;;;5042597;28;20029;-71
2022/07/04 01:25:43;;;;;;;1.95;1.20;;;17.00;66.00;;;;;;5048792;28;20041;-70
2022/07/04 01:28:09;;;;;;;1.92;1.02;;;17.00;66.10;;;;;;5049305;28;20056;-67
2022/07/04 01:30:36;;;;;;;1.42;1.10;;;16.90;66.20;;;;;;5042519;28;20034;-69
2022/07/04 01:33:02;;;;;;;3.28;1.40;;;16.90;66.30;;;;;;5029892;28;20033;-69
2022/07/04 01:35:28;;;;;;;3.70;1.42;;;16.80;66.30;;;;;;5033026;28;20105;-70
2022/07/04 01:37:54;;;;;;;1.45;0.90;;;16.90;66.50;;;;;;5038758;28;20146;-69
2022/07/04 01:40:20;;;;;;;1.70;1.00;;;16.90;66.30;;;;;;5038213;28;20036;-69
2022/07/04 01:42:45;;;;;;;1.88;1.10;;;16.80;66.30;;;;;;5041952;28;20045;-69
2022/07/04 01:45:11;;;;;;;1.77;1.10;;;16.80;66.30;;;;;;5031547;28;20162;-69
2022/07/04 01:47:38;;;;;;;1.42;1.00;;;16.80;66.30;;;;;;5035649;28;20508;-69
2022/07/04 01:50:05;;;;;;;1.95;1.05;;;16.70;66.40;;;;;;5048773;28;20078;-70
2022/07/04 01:52:31;;;;;;;1.90;0.80;;;16.80;66.50;;;;;;5045158;28;20032;-70
2022/07/04 01:54:57;;;;;;;2.03;1.10;;;16.70;66.40;;;;;;5030802;28;20036;-71
2022/07/04 01:57:22;;;;;;;1.75;1.20;;;16.70;66.60;;;;;;5032333;28;20041;-70
2022/07/04 02:02:32;;;;;;;2.35;1.13;;;16.70;66.70;;;;;;5037333;28;20407;-72
2022/07/04 02:04:57;;;;;;;2.55;1.20;;;16.60;66.70;;;;;;5052296;28;20025;-70
2022/07/04 02:07:23;;;;;;;1.92;1.00;;;16.60;66.80;;;;;;5051764;28;20021;-68
2022/07/04 02:09:48;;;;;;;1.38;1.00;;;16.50;66.80;;;;;;5033307;28;20040;-69
2022/07/04 02:14:58;;;;;;;2.50;1.20;;;16.50;66.90;;;;;;5046637;28;20044;-69
2022/07/04 02:17:24;;;;;;;1.80;1.20;;;16.50;66.90;;;;;;5033764;28;20037;-69
2022/07/04 02:19:50;;;;;;;3.33;1.33;;;16.40;67.00;;;;;;5039863;28;20101;-70
2022/07/04 02:22:16;;;;;;;2.00;1.23;;;16.40;67.20;;;;;;5048324;28;20171;-70
2022/07/04 02:24:41;;;;;;;1.67;1.02;;;16.40;67.30;;;;;;5033239;28;20037;-70
2022/07/04 02:27:08;;;;;;;2.45;1.30;;;16.40;67.40;;;;;;5049099;28;20037;-70
2022/07/04 02:29:34;;;;;;;2.05;1.20;;;16.40;67.40;;;;;;5036016;28;20043;-69
2022/07/04 02:32:00;;;;;;;2.13;1.45;;;16.30;67.30;;;;;;5033033;28;20025;-70
2022/07/04 02:34:26;;;;;;;2.40;1.30;;;16.30;67.40;;;;;;5036853;28;20101;-70
2022/07/04 02:36:51;;;;;;;2.00;1.30;;;16.30;67.50;;;;;;5045391;28;20033;-68
2022/07/04 02:39:17;;;;;;;1.45;1.20;;;16.30;67.50;;;;;;5038544;28;20036;-71
2022/07/04 02:41:43;;;;;;;2.70;1.30;;;16.30;67.50;;;;;;5033005;28;20585;-68
2022/07/04 02:44:09;;;;;;;3.85;1.63;;;16.30;67.70;;;;;;5043865;28;20710;-69
2022/07/04 02:46:35;;;;;;;1.63;1.40;;;16.30;67.70;;;;;;5039847;28;20036;-70
2022/07/04 02:49:01;;;;;;;2.60;1.40;;;16.30;67.60;;;;;;5042363;28;20025;-70
2022/07/04 02:51:27;;;;;;;2.45;1.73;;;16.30;67.70;;;;;;5046267;28;20025;-70
2022/07/04 02:53:52;;;;;;;2.17;1.42;;;16.20;67.90;;;;;;5048590;28;20453;-70
2022/07/04 02:56:18;;;;;;;3.17;2.08;;;16.20;68.00;;;;;;5046107;28;20035;-71
2022/07/04 02:58:44;;;;;;;3.13;1.65;;;16.20;68.00;;;;;;5045037;28;20037;-70
2022/07/04 03:01:12;;;;;;;3.38;2.22;;;16.20;68.00;;;;;;5032633;28;20074;-71
2022/07/04 03:03:39;;;;;;;4.18;2.30;;;16.20;68.10;;;;;;5040529;28;20768;-70
2022/07/04 03:06:05;;;;;;;2.75;2.20;;;16.10;68.30;;;;;;5032790;28;20171;-70
2022/07/04 03:08:30;;;;;;;3.30;2.20;;;16.10;68.30;;;;;;5035188;28;20477;-70
2022/07/04 03:10:56;;;;;;;2.72;2.08;;;16.10;68.30;;;;;;5050543;28;20051;-70
2022/07/04 03:13:21;;;;;;;3.55;2.20;;;16.10;68.30;;;;;;5042941;28;20672;-69
2022/07/04 03:15:47;;;;;;;3.70;2.45;;;16.10;68.30;;;;;;5052266;28;20017;-70
2022/07/04 03:18:12;;;;;;;3.20;2.70;;;16.10;68.60;;;;;;5050110;28;20021;-70
2022/07/04 03:20:38;;;;;;;3.58;2.65;;;16.00;68.80;;;;;;5032298;28;20037;-70
2022/07/04 03:23:04;;;;;;;4.53;2.78;;;16.00;69.10;;;;;;5043156;28;20083;-69
2022/07/04 03:25:29;;;;;;;4.53;3.20;;;16.00;69.30;;;;;;5048176;28;20028;-69
2022/07/04 03:27:55;;;;;;;4.13;2.63;;;16.00;69.80;;;;;;5050742;28;20056;-70
2022/07/04 03:30:20;;;;;;;4.55;2.60;;;15.90;70.30;;;;;;5036650;28;20043;-69
2022/07/04 03:32:46;;;;;;;3.85;2.50;;;15.90;70.50;;;;;;5043981;28;20064;-69
2022/07/04 03:35:12;;;;;;;5.63;3.15;;;15.90;70.70;;;;;;5049960;28;20025;-69
2022/07/04 03:37:37;;;;;;;4.07;2.80;;;15.80;71.20;;;;;;5039551;28;20034;-69
2022/07/04 03:40:04;;;;;;;4.85;3.00;;;15.80;71.50;;;;;;5032650;28;20423;-69
2022/07/04 03:42:29;;;;;;;5.50;4.10;;;15.80;71.70;;;;;;5038813;28;20052;-70
2022/07/04 03:44:55;;;;;;;7.38;4.10;;;15.80;72.30;;;;;;5041797;28;20060;-68
2022/07/04 03:47:21;;;;;;;5.47;3.42;;;15.70;72.90;;;;;;5030254;28;20079;-68
2022/07/04 03:49:46;;;;;;;5.10;3.42;;;15.60;73.90;;;;;;5040130;28;20029;-68
2022/07/04 03:52:12;;;;;;;5.43;4.10;;;15.70;73.60;;;;;;5046617;28;20018;-69
2022/07/04 03:54:37;;;;;;;7.43;4.38;;;15.60;74.00;;;;;;5037327;28;20036;-69
2022/07/04 03:57:03;;;;;;;5.05;3.63;;;15.60;74.60;;;;;;5050482;28;20077;-68
2022/07/04 03:59:29;;;;;;;6.15;4.15;;;15.60;74.60;;;;;;5047984;28;20021;-69
2022/07/04 04:01:54;;;;;;;6.15;4.30;;;15.50;75.10;;;;;;5048907;28;20028;-69
2022/07/04 04:07:04;;;;;;;8.32;5.70;;;15.60;75.40;;;;;;5031429;28;20523;-69
2022/07/04 04:09:30;;;;;;;4.93;4.15;;;15.60;75.80;;;;;;5034007;28;20037;-69
2022/07/04 04:11:55;;;;;;;6.07;4.50;;;15.60;75.80;;;;;;5031158;28;20143;-71
2022/07/04 04:14:21;;;;;;;8.75;5.60;;;15.60;75.80;;;;;;5032602;28;20125;-70
2022/07/04 04:16:46;;;;;;;5.57;4.35;;;15.60;76.10;;;;;;5050845;28;20147;-70
2022/07/04 04:19:12;;;;;;;8.95;5.50;;;15.60;76.00;;;;;;5045480;28;20060;-70
2022/07/04 04:21:38;;;;;;;8.15;5.70;;;15.60;76.40;;;;;;5048371;28;20060;-70
2022/07/04 04:24:04;;;;;;;6.05;4.70;;;15.60;76.70;;;;;;5048246;28;20124;-71
2022/07/04 04:26:30;;;;;;;7.07;4.85;;;15.70;76.50;;;;;;5032565;28;20456;-72
2022/07/04 04:28:56;;;;;;;7.25;4.03;;;15.70;76.70;;;;;;5032153;28;20041;-70
2022/07/04 04:31:21;;;;;;;7.40;4.85;;;15.70;76.60;;;;;;5036851;28;20032;-72
2022/07/04 04:33:47;;;;;;;6.40;4.72;;;15.80;76.40;;;;;;5030627;28;20034;-72
2022/07/04 04:36:13;;;;;;;5.65;4.00;;;15.80;76.40;;;;;;5035079;28;20036;-71
2022/07/04 04:38:39;;;;;;;6.97;4.88;;;15.80;76.30;;;;;;5030760;28;20452;-71
2022/07/04 04:41:04;;;;;;;6.10;4.20;;;15.90;76.10;;;;;;5034774;28;20500;-71
2022/07/04 04:43:30;;;;;;;5.07;3.20;;;15.90;76.10;;;;;;5030834;28;20053;-71
2022/07/04 04:45:56;;;;;;;3.88;3.47;;;16.00;75.90;;;;;;5035800;28;20036;-72
2022/07/04 04:48:21;;;;;;;4.32;3.60;;;16.10;75.50;;;;;;5049482;28;20109;-69
2022/07/04 04:50:47;;;;;;;3.88;3.17;;;16.10;75.30;;;;;;5043315;28;20033;-70
2022/07/04 04:53:12;;;;;;;3.92;2.90;;;16.20;75.20;;;;;;5046857;28;20021;-70
2022/07/04 04:55:39;;;;;;;4.43;3.13;;;16.30;74.80;;;;;;5049752;28;20027;-69
2022/07/04 04:58:04;;;;;;;6.05;3.53;;;16.50;74.50;;;;;;5049350;28;20021;-69
2022/07/04 05:00:31;;;;;;;5.72;3.70;;;16.90;73.90;;;;;;5036900;28;20403;-71
2022/07/04 05:02:56;;;;;;;5.30;3.17;;;17.30;72.90;;;;;;5031198;28;20028;-70
2022/07/04 05:05:22;;;;;;;5.28;3.70;;;17.90;71.40;;;;;;5047275;28;20104;-70
2022/07/04 05:07:47;;;;;;;5.68;3.70;;;18.20;70.20;;;;;;5030430;28;20109;-72
2022/07/04 05:10:13;;;;;;;3.67;2.53;;;18.40;69.50;;;;;;5030219;28;20058;-71
2022/07/04 05:12:39;;;;;;;2.47;2.20;;;18.70;68.50;;;;;;5050143;28;20025;-70
2022/07/04 05:15:04;;;;;;;2.72;2.40;;;19.20;67.30;;;;;;5049191;28;20383;-70
2022/07/04 05:17:30;;;;;;;2.17;1.95;;;19.70;65.90;;;;;;5030720;28;20030;-70
2022/07/04 05:19:56;;;;;;;3.30;2.20;;;20.00;64.90;;;;;;5031615;28;20067;-73
2022/07/04 05:22:21;;;;;;;4.55;2.60;;;20.40;63.90;;;;;;5047727;28;20141;-71
2022/07/04 05:24:47;;;;;;;4.18;2.53;;;20.70;63.20;;;;;;5050115;28;20443;-70
2022/07/04 05:27:12;;;;;;;3.60;2.50;;;21.10;62.30;;;;;;5034333;28;20029;-70
2022/07/04 05:29:38;;;;;;;3.38;2.45;;;21.30;61.60;;;;;;5040726;28;20498;-72
2022/07/04 05:32:05;;;;;;;2.97;2.20;;;21.40;61.20;;;;;;5034905;28;20064;-70
2022/07/04 05:34:30;;;;;;;5.45;2.65;;;21.70;60.80;;;;;;5031891;28;20025;-72
2022/07/04 05:36:56;;;;;;;3.05;2.17;;;21.80;60.30;;;;;;5042554;28;20025;-70
2022/07/04 05:39:22;;;;;;;4.03;2.38;;;21.80;60.20;;;;;;5034301;28;20066;-71
2022/07/04 05:41:47;;;;;;;3.30;2.10;;;21.90;60.10;;;;;;5044816;28;20108;-69
2022/07/04 05:44:13;;;;;;;4.45;2.13;;;22.10;60.00;;;;;;5033903;28;20025;-71
2022/07/04 05:46:38;;;;;;;3.00;2.20;;;22.20;59.80;;;;;;5034386;28;20034;-70
2022/07/04 05:49:04;;;;;;;2.90;2.13;;;22.10;59.80;;;;;;5032419;28;20036;-69
2022/07/04 05:51:29;;;;;;;4.07;2.42;;;21.70;60.30;;;;;;5036838;28;20110;-69
2022/07/04 05:53:55;;;;;;;3.00;2.00;;;21.50;61.10;;;;;;5042789;28;20109;-69
2022/07/04 05:56:20;;;;;;;2.50;1.80;;;21.30;61.50;;;;;;5034824;28;20691;-69
2022/07/04 05:58:47;;;;;;;3.13;2.00;;;21.30;62.00;;;;;;5033284;28;20025;-68
2022/07/04 06:01:13;;;;;;;4.22;2.20;;;21.50;61.80;;;;;;5034748;28;20032;-69
2022/07/04 06:03:38;;;;;;;4.10;2.40;;;21.50;61.70;;;;;;5037865;28;20029;-69
2022/07/04 06:06:04;;;;;;;3.30;2.22;;;21.40;61.90;;;;;;5038951;28;20025;-69
2022/07/04 06:08:30;;;;;;;4.97;2.90;;;21.20;62.00;;;;;;5046726;28;20040;-69
2022/07/04 06:10:56;;;;;;;5.70;2.75;;;20.70;62.40;;;;;;5044926;28;20414;-69
2022/07/04 06:13:22;;;;;;;3.72;2.10;;;20.50;63.30;;;;;;5049533;28;20098;-69
2022/07/04 06:15:48;;;;;;;2.22;1.60;;;20.20;63.80;;;;;;5046837;28;20029;-69
2022/07/04 06:18:13;;;;;;;2.95;2.28;;;20.20;64.30;;;;;;5047870;28;20060;-69
2022/07/04 06:20:42;;;;;;;2.90;1.90;;;20.10;64.50;;;;;;5048878;28;20188;-70
2022/07/04 06:23:08;;;;;;;4.25;2.08;;;20.10;64.80;;;;;;5043823;28;20036;-70
2022/07/04 06:25:34;;;;;;;3.17;1.90;;;20.30;64.50;;;;;;5035963;28;20472;-70
2022/07/04 06:28:00;;;;;;;4.57;2.20;;;20.40;64.30;;;;;;5042508;28;20039;-70
2022/07/04 06:30:26;;;;;;;6.38;2.40;;;20.50;64.10;;;;;;5044265;28;20025;-69
2022/07/04 06:32:54;;;;;;;4.13;2.20;;;20.50;63.70;;;;;;5045902;28;20753;-70
2022/07/04 06:38:08;;;;;;;2.67;1.67;;;20.80;63.40;;;;;;5046437;28;20067;-71
2022/07/04 06:40:35;;;;;;;7.15;2.65;;;20.90;63.10;;;;;;5050420;28;20036;-71
2022/07/04 06:43:01;;;;;;;3.15;2.08;;;20.90;62.90;;;;;;5058452;28;20032;-71
2022/07/04 06:45:26;;;;;;;4.95;1.92;;;20.90;63.00;;;;;;5039469;28;20381;-70
2022/07/04 06:47:52;;;;;;;2.78;1.77;;;20.90;62.90;;;;;;5033152;28;20095;-71
2022/07/04 06:50:18;;;;;;;3.55;1.90;;;20.80;62.90;;;;;;5035039;28;20496;-70
2022/07/04 06:52:44;;;;;;;4.20;2.33;;;20.70;63.10;;;;;;5043761;28;20086;-69
2022/07/04 06:55:10;;;;;;;3.38;1.80;;;20.60;63.00;;;;;;5058159;28;20026;-73
2022/07/04 06:57:36;;;;;;;6.60;3.35;;;20.50;63.20;;;;;;5055301;28;21896;-71
2022/07/04 07:00:04;;;;;;;7.20;3.70;;;20.30;63.30;;;;;;5053958;28;20025;-70
2022/07/04 07:02:30;;;;;;;5.78;2.70;;;20.20;63.60;;;;;;5054318;28;20063;-70
2022/07/04 07:04:56;;;;;;;4.07;2.55;;;20.20;63.90;;;;;;5053096;28;20037;-72
2022/07/04 07:07:24;;;;;;;4.20;2.47;;;20.30;63.90;;;;;;5046836;28;20032;-72
2022/07/04 07:09:50;;;;;;;3.97;2.15;;;20.50;63.70;;;;;;5049869;28;20520;-71
2022/07/04 07:12:16;;;;;;;6.90;2.45;;;20.90;63.20;;;;;;5048800;28;20025;-71
2022/07/04 07:14:41;;;;;;;5.97;3.10;;;21.00;62.60;;;;;;5045527;28;20053;-71
2022/07/04 07:17:07;;;;;;;4.63;2.60;;;20.90;62.70;;;;;;5059354;28;20097;-71
2022/07/04 07:19:33;;;;;;;5.75;2.60;;;20.90;62.70;;;;;;5038238;28;20022;-69
2022/07/04 07:21:59;;;;;;;5.20;2.53;;;21.00;62.70;;;;;;5032005;28;20025;-70
2022/07/04 07:24:25;;;;;;;5.55;2.90;;;21.00;62.60;;;;;;5033409;28;20036;-69
2022/07/04 07:26:52;;;;;;;5.82;2.70;;;21.10;62.70;;;;;;5033232;28;20070;-69
2022/07/04 07:29:18;;;;;;;7.35;3.63;;;21.20;62.70;;;;;;5046118;28;20442;-69
2022/07/04 07:31:43;;;;;;;5.97;3.10;;;21.20;62.40;;;;;;5051586;28;20026;-70
2022/07/04 07:34:09;;;;;;;5.75;3.20;;;21.20;62.40;;;;;;5055422;28;20028;-70
2022/07/04 07:36:35;;;;;;;6.05;3.03;;;21.30;62.30;;;;;;5052571;28;20479;-71
2022/07/04 07:39:00;;;;;;;5.53;3.08;;;21.20;62.20;;;;;;5043259;28;20021;-70
2022/07/04 07:41:26;;;;;;;6.25;3.05;;;21.20;62.50;;;;;;5040133;28;20014;-70
2022/07/04 07:43:51;;;;;;;5.97;3.50;;;21.30;62.50;;;;;;5038445;28;20428;-70
2022/07/04 07:46:17;;;;;;;5.65;2.92;;;21.40;62.20;;;;;;5039787;28;20026;-69
2022/07/04 07:48:43;;;;;;;6.40;3.80;;;21.40;62.20;;;;;;5039397;28;20056;-69
2022/07/04 07:51:10;;;;;;;6.22;2.72;;;21.40;62.10;;;;;;5038636;28;20040;-69
2022/07/04 07:53:35;;;;;;;7.38;3.00;;;21.50;62.10;;;;;;5040459;28;20025;-67
2022/07/04 07:56:01;;;;;;;4.68;2.50;;;21.70;62.00;;;;;;5041934;28;20093;-70
2022/07/04 07:58:27;;;;;;;5.35;3.58;;;22.00;61.80;;;;;;5040657;28;20047;-69
2022/07/04 08:00:52;;;;;;;7.35;4.00;;;22.10;62.00;;;;;;5040915;28;20017;-68
2022/07/04 08:06:02;;;;;;;5.80;3.53;;;22.20;61.10;;;;;;5038234;28;20519;-68
2022/07/04 08:08:28;;;;;;;6.22;2.70;;;22.20;60.90;;;;;;5041381;28;20034;-69
2022/07/04 08:10:54;;;;;;;5.40;3.05;;;22.20;60.90;;;;;;5039374;28;20025;-68
2022/07/04 08:13:19;;;;;;;4.80;2.97;;;22.30;60.90;;;;;;5039457;28;20634;-68
2022/07/04 08:15:45;;;;;;;6.68;3.42;;;22.50;60.80;;;;;;5035428;28;20060;-68
2022/07/04 08:18:11;;;;;;;5.03;2.63;;;22.80;60.40;;;;;;5036378;28;20100;-68
2022/07/04 08:20:37;;;;;;;7.57;3.00;;;23.00;60.30;;;;;;5038153;28;20100;-68
2022/07/04 08:23:02;;;;;;;4.57;2.78;;;23.00;60.00;;;;;;5038501;28;20036;-67
2022/07/04 08:25:28;;;;;;;8.70;3.30;;;23.00;60.00;;;;;;5039067;28;20527;-68
2022/07/04 08:27:53;;;;;;;7.45;3.58;;;22.90;60.10;;;;;;5037251;28;20021;-69
2022/07/04 08:30:19;;;;;;;6.70;3.75;;;22.70;60.40;;;;;;5039367;28;20408;-68
2022/07/04 08:32:45;;;;;;;5.65;3.85;;;22.60;60.60;;;;;;5036295;28;20079;-69
2022/07/04 08:35:10;;;;;;;9.70;5.80;;;22.50;60.70;;;;;;5035361;28;20032;-70
2022/07/04 08:37:36;;;;;;;5.72;3.80;;;22.40;60.60;;;;;;5039517;28;20025;-69
2022/07/04 08:40:06;;;;;;;5.35;3.97;;;22.30;60.80;;;;;;5037979;28;20025;-69
2022/07/04 08:42:36;;;;;;;8.05;3.78;;;22.40;61.00;;;;;;5037459;28;20569;-68
2022/07/04 08:45:03;;;;;;;6.20;3.80;;;22.40;60.80;;;;;;5039679;28;20105;-68
2022/07/04 08:47:33;;;;;;;5.90;3.75;;;22.50;60.80;;;;;;5040596;28;20062;-67
2022/07/04 08:50:11;;;;;;;5.68;3.75;;;22.50;60.60;;;;;;5044473;28;20032;-68
2022/07/04 08:52:40;;;;;;;6.28;3.28;;;22.40;61.00;;;;;;5042000;28;20024;-68
2022/07/04 09:00:38;;;;;;;8.18;3.95;;;22.60;60.80;;;;;;5043900;28;20032;-68
2022/07/04 09:03:04;;;;;;;7.30;3.38;;;22.70;60.50;;;;;;5043922;28;20771;-68
2022/07/04 09:05:32;;;;;;;5.78;3.03;;;22.90;60.40;;;;;;5042794;28;20151;-68
2022/07/04 09:07:58;;;;;;;8.98;5.43;;;23.10;60.10;;;;;;5041340;28;20074;-68
2022/07/04 09:10:24;;;;;;;10.93;5.40;;;23.20;59.60;;;;;;5043564;28;20091;-68
2022/07/04 09:12:49;;;;;;;8.07;4.43;;;23.00;59.60;;;;;;5044789;28;20113;-69
2022/07/04 09:15:16;;;;;;;7.35;4.00;;;22.80;60.10;;;;;;5046406;28;20147;-69
2022/07/04 09:17:42;;;;;;;9.15;4.22;;;22.70;60.30;;;;;;5044898;28;20032;-69
2022/07/04 09:20:19;;;;;;;8.60;3.75;;;22.70;60.30;;;;;;5045164;28;20048;-69
2022/07/04 09:22:45;;;;;;;6.28;3.20;;;22.70;60.50;;;;;;5046372;28;20025;-69
2022/07/04 09:25:14;;;;;;;6.60;3.38;;;22.90;60.30;;;;;;5044385;28;20013;-69
2022/07/04 09:27:44;;;;;;;7.10;3.92;;;22.90;60.00;;;;;;5047303;28;20048;-69
2022/07/04 09:30:12;;;;;;;7.40;3.75;;;22.80;59.70;;;;;;5035446;28;20017;-69
2022/07/04 09:32:42;;;;;;;6.45;3.50;;;22.80;59.80;;;;;;5044500;28;20039;-69
2022/07/04 09:35:10;;;;;;;9.57;4.88;;;22.70;59.90;;;;;;5043798;28;20037;-70
2022/07/04 09:37:47;;;;;;;5.88;3.17;;;22.60;59.90;;;;;;5048658;28;20496;-69
2022/07/04 09:43:21;;;;;;;5.78;3.60;;;22.40;60.60;;;;;;5020810;28;20045;-69
2022/07/04 09:45:57;;;;;;;4.90;2.95;;;22.30;60.80;;;;;;5042562;28;20036;-69
2022/07/04 09:48:24;;;;;;;4.25;2.67;;;22.30;60.90;;;;;;5042575;28;20081;-69
2022/07/04 09:50:50;;;;;;;4.10;2.47;;;22.50;61.00;;;;;;5040154;28;20029;-69
2022/07/04 09:53:15;;;;;;;4.43;2.35;;;22.60;60.60;;;;;;5043675;28;20130;-69
2022/07/04 09:55:41;;;;;;;4.60;1.90;;;22.90;60.20;;;;;;5041007;28;20112;-70
2022/07/04 09:58:12;;;;;;;4.18;2.10;;;23.20;59.50;;;;;;5038718;28;20072;-68
2022/07/04 10:00:41;;;;;;;4.68;1.73;;;23.50;58.90;;;;;;5039322;28;20065;-68
2022/07/04 10:03:26;;;;;;;4.88;2.08;;;23.80;58.30;;;;;;5045295;28;20037;-68
2022/07/04 10:06:02;;;;;;;2.83;1.48;;;23.90;57.50;;;;;;5039516;28;20040;-68
2022/07/04 10:08:28;;;;;;;4.03;1.52;;;24.10;57.10;;;;;;5035130;28;20065;-68
2022/07/04 10:10:58;;;;;;;4.85;1.52;;;24.30;55.50;;;;;;5041396;28;20060;-68
2022/07/04 10:13:24;;;;;;;3.83;1.52;;;24.40;55.20;;;;;;5042676;28;20036;-68
2022/07/04 10:15:49;;;;;;;5.07;1.52;;;24.50;54.50;;;;;;5039909;28;20419;-69
2022/07/04 10:18:18;;;;;;;3.80;1.40;;;24.50;53.20;;;;;;5046613;28;20047;-68
2022/07/04 10:20:44;;;;;;;3.58;1.20;;;24.40;52.60;;;;;;5044080;28;20029;-68
2022/07/04 10:23:10;;;;;;;3.25;1.70;;;24.30;52.10;;;;;;5045518;28;20024;-68
2022/07/04 10:25:36;;;;;;;2.50;1.00;;;24.50;52.50;;;;;;5046499;28;20029;-67
2022/07/04 10:28:02;;;;;;;2.53;1.40;;;24.70;51.80;;;;;;5044774;28;20604;-68
2022/07/04 10:30:36;;;;;;;2.50;1.10;;;24.70;50.80;;;;;;5044762;28;20052;-68
2022/07/04 10:33:04;;;;;;;2.53;0.95;;;24.60;50.30;;;;;;5042028;28;20036;-68
2022/07/04 10:35:56;;;;;;;2.30;1.00;;;24.70;50.30;;;;;;5046756;28;20087;-68
2022/07/04 10:38:24;;;;;;;2.85;1.00;;;24.80;50.50;;;;;;5044276;28;20029;-68
2022/07/04 10:40:56;;;;;;;2.25;1.10;;;24.80;50.60;;;;;;5045308;28;20021;-68
2022/07/04 10:46:16;;;;;;;2.90;1.27;;;24.70;50.40;;;;;;5043371;28;20115;-68
2022/07/04 10:49:12;;;;;;;3.17;1.38;;;24.70;50.60;;;;;;5050248;28;20044;-68
2022/07/04 10:51:51;;;;;;;1.48;0.90;;;24.80;50.60;;;;;;5046526;28;20033;-68
2022/07/04 10:54:19;;;;;;;2.55;1.20;;;24.80;50.90;;;;;;5046786;28;20487;-68
2022/07/04 10:56:52;;;;;;;2.33;1.30;;;24.80;50.70;;;;;;5043988;28;20028;-68
2022/07/04 10:59:20;;;;;;;2.22;1.08;;;24.70;50.60;;;;;;5051232;28;20029;-68
2022/07/04 11:02:06;;;;;;;2.15;1.00;;;24.70;50.60;;;;;;5050592;28;20115;-68
2022/07/04 11:04:53;;;;;;;2.00;1.05;;;24.70;50.80;;;;;;5043510;28;20064;-68
2022/07/04 11:07:21;;;;;;;1.42;0.98;;;24.60;50.60;;;;;;5043447;28;20044;-68
2022/07/04 11:10:06;;;;;;;1.70;0.90;;;24.70;50.70;;;;;;5051520;28;20021;-68
2022/07/04 11:12:32;;;;;;;2.45;1.00;;;24.80;50.80;;;;;;5048440;28;20029;-68
2022/07/04 11:14:57;;;;;;;2.40;1.00;;;24.80;50.30;;;;;;5046880;28;20029;-69
2022/07/04 11:17:37;;;;;;;2.35;0.90;;;24.80;50.40;;;;;;5046543;28;20029;-68
2022/07/04 11:20:04;;;;;;;2.30;0.90;;;24.90;50.30;;;;;;5047261;28;20025;-68
2022/07/04 11:22:30;;;;;;;1.38;0.88;;;25.00;50.20;;;;;;5049095;28;20048;-68
2022/07/04 11:24:56;;;;;;;1.77;0.93;;;25.10;49.70;;;;;;5043986;28;20108;-68
2022/07/04 11:27:22;;;;;;;2.40;1.40;;;25.30;49.50;;;;;;5046626;28;20497;-68
2022/07/04 11:29:52;;;;;;;1.77;1.00;;;25.40;47.80;;;;;;5049740;28;20028;-68
2022/07/04 11:32:18;;;;;;;3.78;1.20;;;25.50;48.10;;;;;;5046399;28;21343;-68
2022/07/04 11:34:44;;;;;;;1.73;1.00;;;25.70;48.00;;;;;;5045220;28;20029;-68
2022/07/04 11:37:10;;;;;;;3.28;1.17;;;25.80;47.50;;;;;;5048695;28;20029;-67
2022/07/04 11:39:35;;;;;;;3.28;1.20;;;25.70;47.20;;;;;;5047171;28;20036;-67
2022/07/04 11:45:04;;;;;;;1.23;0.93;;;25.50;47.80;;;;;;5047110;28;20458;-67
2022/07/04 11:47:41;;;;;;;2.80;1.15;;;25.50;48.20;;;;;;5045625;28;20399;-67
2022/07/04 11:50:13;;;;;;;0.82;0.82;;;25.60;47.80;;;;;;5058892;28;20036;-68
2022/07/04 11:52:44;;;;;;;3.45;1.33;;;25.80;47.80;;;;;;5046345;28;20022;-68
2022/07/04 11:55:15;;;;;;;2.60;1.10;;;26.10;47.10;;;;;;5046870;28;20044;-69
2022/07/04 11:57:54;;;;;;;1.95;0.95;;;26.20;46.10;;;;;;5045310;28;20739;-68
2022/07/04 12:00:24;;;;;;;1.80;1.10;;;26.30;45.80;;;;;;5044876;28;20029;-67
2022/07/04 12:02:50;;;;;;;1.52;1.05;;;26.20;45.80;;;;;;5045496;28;20025;-68
2022/07/04 12:05:17;;;;;;;1.25;0.98;;;26.10;46.10;;;;;;5038009;28;20104;-68
2022/07/04 12:07:45;;;;;;;2.15;1.00;;;26.00;46.20;;;;;;5044244;28;20505;-69
2022/07/04 12:10:15;;;;;;;3.40;1.23;;;25.80;45.80;;;;;;5039587;28;20195;-69
2022/07/04 12:12:51;;;;;;;1.88;1.00;;;25.60;45.90;;;;;;5042758;28;20051;-67
2022/07/04 12:15:17;;;;;;;1.83;0.90;;;25.70;46.60;;;;;;5042401;28;20037;-68
2022/07/04 12:17:42;;;;;;;1.45;1.20;;;25.80;46.30;;;;;;5048293;28;20028;-68
2022/07/04 12:20:14;;;;;;;1.67;1.00;;;26.00;45.60;;;;;;5047726;28;20225;-68
2022/07/04 12:22:42;;;;;;;1.92;0.95;;;26.30;46.10;;;;;;5044296;28;20021;-69
2022/07/04 12:25:34;;;;;;;2.05;1.05;;;26.50;45.10;;;;;;5048675;28;20025;-68
2022/07/04 12:28:12;;;;;;;1.10;1.00;;;26.70;45.10;;;;;;5040984;28;20025;-68
2022/07/04 12:30:40;;;;;;;1.77;0.88;;;26.80;44.70;;;;;;5042227;28;20425;-69
2022/07/04 12:33:07;;;;;;;2.50;0.90;;;26.70;44.60;;;;;;5042920;28;20514;-69
2022/07/04 12:35:49;;;;;;;2.50;0.80;;;26.80;44.60;;;;;;5038868;28;20112;-69
2022/07/04 12:38:42;;;;;;;2.72;1.30;;;27.00;44.30;;;;;;5037715;28;20877;-69
2022/07/04 12:41:11;;;;;;;1.75;1.08;;;27.10;43.80;;;;;;5041758;28;20047;-69
2022/07/04 12:43:43;;;;;;;1.63;0.82;;;27.10;43.10;;;;;;5040487;28;20488;-69
2022/07/04 12:46:10;;;;;;;2.20;0.90;;;27.10;43.10;;;;;;5042144;28;20033;-69
2022/07/04 12:48:36;;;;;;;1.80;1.00;;;27.20;43.10;;;;;;5041380;28;20082;-69
2022/07/04 12:51:19;;;;;;;2.88;1.20;;;27.40;42.70;;;;;;5042853;28;20029;-69
2022/07/04 12:53:46;;;;;;;1.73;0.93;;;27.60;42.40;;;;;;5046399;28;20162;-70
2022/07/04 12:56:34;;;;;;;1.35;1.10;;;27.60;41.70;;;;;;5035026;28;20036;-69
2022/07/04 12:59:02;;;;;;;1.25;0.80;;;27.70;41.30;;;;;;5042224;28;20057;-69
2022/07/04 13:01:28;;;;;;;2.10;1.27;;;27.80;40.60;;;;;;5041181;28;20025;-69
2022/07/04 13:03:54;;;;;;;2.75;1.13;;;27.80;39.50;;;;;;5045924;28;20033;-70
2022/07/04 13:06:20;;;;;;;1.05;0.80;;;27.80;39.60;;;;;;5045016;28;20028;-70
2022/07/04 13:08:46;;;;;;;1.85;1.00;;;27.90;40.10;;;;;;5040825;28;20108;-69
2022/07/04 13:13:56;;;;;;;0.80;0.75;;;28.00;40.40;;;;;;5046257;28;20816;-69
2022/07/04 13:16:21;;;;;;;1.00;0.90;;;28.10;40.40;;;;;;5045091;28;20021;-69
2022/07/04 13:18:47;;;;;;;2.03;0.95;;;28.20;40.20;;;;;;5043221;28;20027;-69